createdAt,value
2022-08-24T00:02:18.038Z,19.22
2022-08-24T00:05:22.293Z,19.17
2022-08-24T00:08:28.099Z,19.22
2022-08-24T00:11:31.683Z,19.18
2022-08-24T00:14:36.273Z,19.10
2022-08-24T00:17:40.577Z,19.07
2022-08-24T00:20:45.333Z,18.98
2022-08-24T00:23:50.457Z,18.95
2022-08-24T00:26:55.211Z,18.90
2022-08-24T00:29:59.042Z,18.89
2022-08-24T00:33:03.570Z,18.88
2022-08-24T00:36:08.232Z,18.88
2022-08-24T00:39:13.755Z,18.87
2022-08-24T00:42:17.372Z,18.86
2022-08-24T00:45:22.204Z,18.86
2022-08-24T00:48:34.883Z,18.92
2022-08-24T00:51:55.653Z,18.94
2022-08-24T00:55:08.519Z,18.98
2022-08-24T00:58:20.516Z,18.98
2022-08-24T01:01:25.169Z,19.02
2022-08-24T01:04:39.929Z,19.06
2022-08-24T01:07:44.179Z,19.06
2022-08-24T01:10:56.759Z,19.07
2022-08-24T01:14:02.141Z,19.04
2022-08-24T01:17:23.383Z,19.01
2022-08-24T01:20:27.107Z,18.99
2022-08-24T01:23:41.144Z,18.96
2022-08-24T01:26:48.932Z,18.93
2022-08-24T01:29:54.851Z,18.95
2022-08-24T01:33:01.872Z,18.99
2022-08-24T01:36:16.045Z,18.93
2022-08-24T01:39:26.307Z,18.90
2022-08-24T01:42:30.450Z,18.85
2022-08-24T01:45:34.652Z,18.83
2022-08-24T01:48:38.464Z,18.77
2022-08-24T01:51:43.320Z,18.72
2022-08-24T01:54:49.448Z,18.72
2022-08-24T01:57:53.196Z,18.66
2022-08-24T02:00:57.035Z,18.59
2022-08-24T02:04:04.897Z,18.54
2022-08-24T02:07:09.560Z,18.44
2022-08-24T02:10:16.558Z,18.37
2022-08-24T02:13:20.222Z,18.32
2022-08-24T02:16:24.282Z,18.24
2022-08-24T02:19:28.350Z,18.20
2022-08-24T02:22:32.001Z,18.16
2022-08-24T02:25:37.085Z,18.14
2022-08-24T02:28:42.572Z,18.13
2022-08-24T02:31:46.415Z,18.10
2022-08-24T02:34:50.074Z,18.02
2022-08-24T02:37:59.198Z,17.98
2022-08-24T02:41:04.256Z,17.98
2022-08-24T02:44:08.051Z,17.86
2022-08-24T02:47:11.975Z,17.86
2022-08-24T02:50:18.953Z,17.79
2022-08-24T02:53:23.667Z,17.77
2022-08-24T02:56:31.128Z,17.74
2022-08-24T02:59:34.763Z,17.69
2022-08-24T03:02:38.580Z,17.60
2022-08-24T03:05:42.308Z,17.52
2022-08-24T03:08:46.398Z,17.47
2022-08-24T03:11:56.307Z,17.40
2022-08-24T03:14:59.911Z,17.41
2022-08-24T03:18:03.726Z,17.33
2022-08-24T03:21:07.767Z,17.29
2022-08-24T03:24:11.672Z,17.34
2022-08-24T03:27:16.659Z,17.32
2022-08-24T03:30:20.383Z,17.31
2022-08-24T03:33:25.751Z,17.31
2022-08-24T03:36:29.369Z,17.34
2022-08-24T03:39:33.335Z,17.31
2022-08-24T03:42:38.339Z,17.26
2022-08-24T03:45:43.789Z,17.26
2022-08-24T03:48:49.104Z,17.32
2022-08-24T03:51:53.095Z,17.31
2022-08-24T03:54:56.854Z,17.35
2022-08-24T03:58:01.947Z,17.38
2022-08-24T04:01:07.360Z,17.39
2022-08-24T04:04:11.863Z,17.39
2022-08-24T04:07:15.546Z,17.38
2022-08-24T04:10:19.337Z,17.41
2022-08-24T04:13:25.231Z,17.35
2022-08-24T04:16:30.688Z,17.36
2022-08-24T04:19:35.874Z,17.37
2022-08-24T04:22:39.791Z,17.35
2022-08-24T04:25:45.318Z,17.30
2022-08-24T04:28:54.231Z,17.25
2022-08-24T04:31:59.022Z,17.26
2022-08-24T04:35:03.572Z,17.23
2022-08-24T04:38:08.295Z,17.21
2022-08-24T04:41:14.368Z,17.18
2022-08-24T04:44:20.293Z,17.19
2022-08-24T04:47:24.340Z,17.17
2022-08-24T04:50:27.975Z,17.21
2022-08-24T04:53:31.886Z,17.21
2022-08-24T04:56:36.248Z,17.17
2022-08-24T04:59:41.304Z,17.18
2022-08-24T05:02:45.357Z,17.22
2022-08-24T05:05:52.274Z,17.26
2022-08-24T05:08:56.865Z,17.30
2022-08-24T05:12:01.412Z,17.36
2022-08-24T05:15:08.174Z,17.39
2022-08-24T05:18:12.444Z,17.43
2022-08-24T05:21:19.434Z,17.49
2022-08-24T05:24:25.212Z,17.55
2022-08-24T05:27:28.861Z,17.63
2022-08-24T05:30:34.530Z,17.80
2022-08-24T05:33:38.580Z,17.90
2022-08-24T05:36:43.229Z,18.00
2022-08-24T05:39:47.008Z,18.09
2022-08-24T05:42:51.771Z,18.17
2022-08-24T05:45:57.235Z,18.33
2022-08-24T05:49:02.482Z,18.40
2022-08-24T05:52:06.704Z,18.47
2022-08-24T05:55:11.447Z,18.41
2022-08-24T05:58:18.544Z,18.47
2022-08-24T06:01:33.482Z,18.56
2022-08-24T06:04:38.289Z,18.67
2022-08-24T06:07:42.146Z,18.63
2022-08-24T06:10:48.915Z,18.62
2022-08-24T06:13:56.298Z,18.52
2022-08-24T06:17:06.338Z,18.60
2022-08-24T06:20:11.881Z,18.86
2022-08-24T06:23:15.486Z,19.06
2022-08-24T06:26:38.741Z,19.20
2022-08-24T06:29:42.444Z,19.11
2022-08-24T06:32:47.927Z,19.16
2022-08-24T06:35:51.555Z,19.16
2022-08-24T06:38:55.154Z,19.03
2022-08-24T06:42:00.238Z,19.17
2022-08-24T06:45:04.203Z,19.26
2022-08-24T06:48:09.754Z,19.28
2022-08-24T06:51:20.109Z,19.25
2022-08-24T06:54:23.746Z,19.23
2022-08-24T06:57:27.358Z,19.40
2022-08-24T07:00:31.858Z,19.84
2022-08-24T07:03:37.034Z,20.21
2022-08-24T07:06:40.821Z,20.52
2022-08-24T07:09:44.472Z,20.99
2022-08-24T07:12:48.149Z,21.42
2022-08-24T07:15:54.308Z,21.63
2022-08-24T07:18:59.630Z,22.09
2022-08-24T07:22:03.546Z,22.56
2022-08-24T07:25:09.099Z,22.56
2022-08-24T07:28:13.799Z,22.73
2022-08-24T07:31:18.186Z,22.92
2022-08-24T07:34:23.192Z,23.21
2022-08-24T07:37:40.711Z,23.39
2022-08-24T07:41:14.471Z,23.46
2022-08-24T07:44:15.708Z,23.73
2022-08-24T07:47:39.030Z,23.94
2022-08-24T07:50:45.470Z,24.34
2022-08-24T07:53:54.053Z,24.45
2022-08-24T07:57:02.232Z,24.39
2022-08-24T08:00:08.677Z,24.55
2022-08-24T08:03:12.347Z,24.61
2022-08-24T08:06:19.186Z,24.77
2022-08-24T08:09:23.149Z,25.21
2022-08-24T08:12:26.775Z,25.42
2022-08-24T08:15:39.588Z,25.45
2022-08-24T08:18:43.503Z,25.36
2022-08-24T08:22:09.623Z,25.40
2022-08-24T08:25:14.332Z,25.68
2022-08-24T08:28:25.367Z,25.72
2022-08-24T08:31:30.048Z,25.84
2022-08-24T08:34:37.915Z,26.05
2022-08-24T08:37:43.565Z,26.25
2022-08-24T08:41:04.628Z,26.19
2022-08-24T08:44:21.162Z,26.37
2022-08-24T08:47:55.061Z,26.76
2022-08-24T08:51:45.495Z,26.90
2022-08-24T08:55:06.370Z,26.85
2022-08-24T08:58:32.971Z,26.90
2022-08-24T09:01:51.659Z,27.04
2022-08-24T09:05:36.579Z,27.45
2022-08-24T09:09:10.877Z,27.54
2022-08-24T09:12:27.343Z,27.61
2022-08-24T09:15:57.656Z,27.74
2022-08-24T09:19:31.820Z,28.09
2022-08-24T09:22:40.909Z,28.23
2022-08-24T09:25:59.329Z,28.42
2022-08-24T09:29:16.504Z,28.04
2022-08-24T09:32:53.031Z,27.67
2022-08-24T09:36:15.623Z,27.62
2022-08-24T09:39:39.306Z,27.75
2022-08-24T09:43:36.687Z,27.45
2022-08-24T09:48:07.113Z,27.38
2022-08-24T09:52:21.567Z,27.67
2022-08-24T09:56:14.606Z,27.64
2022-08-24T09:59:47.600Z,27.65
2022-08-24T10:03:04.076Z,27.82
2022-08-24T10:06:33.302Z,27.87
2022-08-24T10:10:04.612Z,28.33
2022-08-24T10:13:27.476Z,28.42
2022-08-24T10:17:01.730Z,28.22
2022-08-24T10:20:23.907Z,28.12
2022-08-24T10:23:55.084Z,28.23
2022-08-24T10:27:21.332Z,28.14
2022-08-24T10:31:12.533Z,28.12
2022-08-24T10:34:40.282Z,27.90
2022-08-24T10:38:26.231Z,28.16
2022-08-24T10:42:36.392Z,28.42
2022-08-24T10:46:38.371Z,28.43
2022-08-24T10:50:23.598Z,28.28
2022-08-24T10:53:36.135Z,28.57
2022-08-24T10:56:44.511Z,28.61
2022-08-24T11:00:01.784Z,28.53
2022-08-24T11:03:12.122Z,28.56
2022-08-24T11:06:20.463Z,28.55
2022-08-24T11:09:24.038Z,28.66
2022-08-24T11:12:33.071Z,28.57
2022-08-24T11:15:48.736Z,28.90
2022-08-24T11:18:55.921Z,28.79
2022-08-24T11:22:04.075Z,29.02
2022-08-24T11:25:17.968Z,28.70
2022-08-24T11:28:33.353Z,28.84
2022-08-24T11:31:43.209Z,28.74
2022-08-24T11:34:49.818Z,28.75
2022-08-24T11:37:59.306Z,28.75
2022-08-24T11:41:12.822Z,28.96
2022-08-24T11:44:35.030Z,29.21
2022-08-24T11:48:00.440Z,29.02
2022-08-24T11:51:13.155Z,29.11
2022-08-24T11:54:34.596Z,29.13
2022-08-24T11:57:47.515Z,29.03
2022-08-24T12:01:03.401Z,29.22
2022-08-24T12:04:32.097Z,29.52
2022-08-24T12:07:51.686Z,29.60
2022-08-24T12:11:07.306Z,29.71
2022-08-24T12:14:24.016Z,29.68
2022-08-24T12:17:38.406Z,29.96
2022-08-24T12:20:48.314Z,29.70
2022-08-24T12:24:00.253Z,29.80
2022-08-24T12:27:13.369Z,29.88
2022-08-24T12:30:19.267Z,29.90
2022-08-24T12:33:33.271Z,29.88
2022-08-24T12:36:57.400Z,29.78
2022-08-24T12:40:13.563Z,29.87
2022-08-24T12:43:26.476Z,29.99
2022-08-24T12:46:31.303Z,29.69
2022-08-24T12:49:49.278Z,29.48
2022-08-24T12:53:40.319Z,29.42
2022-08-24T12:57:51.808Z,29.81
2022-08-24T13:01:06.323Z,30.04
2022-08-24T13:04:31.555Z,30.08
2022-08-24T13:07:43.688Z,29.97
2022-08-24T13:11:06.065Z,29.89
2022-08-24T13:14:22.420Z,29.87
2022-08-24T13:17:43.114Z,29.84
2022-08-24T13:20:57.125Z,30.16
2022-08-24T13:24:50.314Z,29.81
2022-08-24T13:28:33.953Z,29.71
2022-08-24T13:31:43.476Z,29.77
2022-08-24T13:34:51.749Z,29.75
2022-08-24T13:38:51.643Z,30.03
2022-08-24T13:42:14.072Z,29.93
2022-08-24T13:45:27.631Z,30.11
2022-08-24T13:48:53.914Z,30.14
2022-08-24T13:52:16.725Z,30.55
2022-08-24T13:55:49.823Z,30.36
2022-08-24T13:59:06.818Z,30.38
2022-08-24T14:02:32.448Z,30.26
2022-08-24T14:05:46.553Z,30.23
2022-08-24T14:09:04.276Z,30.28
2022-08-24T14:13:00.074Z,30.60
2022-08-24T14:16:45.225Z,30.79
2022-08-24T14:20:00.877Z,30.51
2022-08-24T14:23:23.175Z,30.36
2022-08-24T14:27:08.224Z,30.47
2022-08-24T14:30:46.862Z,30.42
2022-08-24T14:34:15.348Z,30.57
2022-08-24T14:37:30.629Z,30.69
2022-08-24T14:40:39.815Z,30.55
2022-08-24T14:44:42.996Z,30.67
2022-08-24T14:48:04.959Z,30.93
2022-08-24T14:51:30.273Z,30.81
2022-08-24T14:54:49.757Z,30.95
2022-08-24T14:58:11.254Z,30.78
2022-08-24T15:01:43.746Z,30.69
2022-08-24T15:04:52.255Z,30.63
2022-08-24T15:08:01.161Z,30.64
2022-08-24T15:11:13.046Z,30.22
2022-08-24T15:14:33.636Z,29.86
2022-08-24T15:17:59.933Z,29.97
2022-08-24T15:21:21.715Z,30.08
2022-08-24T15:24:40.697Z,30.30
2022-08-24T15:27:53.799Z,30.61
2022-08-24T15:31:01.810Z,30.53
2022-08-24T15:34:06.980Z,30.69
2022-08-24T15:37:12.355Z,30.55
2022-08-24T15:40:29.499Z,30.76
2022-08-24T15:43:35.184Z,30.61
2022-08-24T15:46:44.715Z,30.93
2022-08-24T15:49:55.351Z,30.81
2022-08-24T15:53:03.180Z,30.60
2022-08-24T15:56:29.952Z,30.86
2022-08-24T15:59:49.135Z,30.79
2022-08-24T16:02:51.743Z,30.73
2022-08-24T16:06:18.131Z,30.73
2022-08-24T16:09:38.775Z,30.62
2022-08-24T16:12:42.523Z,30.52
2022-08-24T16:15:54.689Z,30.72
2022-08-24T16:19:02.240Z,30.63
2022-08-24T16:22:14.467Z,30.46
2022-08-24T16:25:26.511Z,30.40
2022-08-24T16:28:38.998Z,30.37
2022-08-24T16:31:52.923Z,30.19
2022-08-24T16:35:17.501Z,30.12
2022-08-24T16:38:22.478Z,30.11
2022-08-24T16:41:27.595Z,30.00
2022-08-24T16:44:38.785Z,29.98
2022-08-24T16:47:42.470Z,29.99
2022-08-24T16:50:50.521Z,29.68
2022-08-24T16:53:56.428Z,29.47
2022-08-24T16:57:04.082Z,29.55
2022-08-24T17:00:12.610Z,29.45
2022-08-24T17:03:16.432Z,29.25
2022-08-24T17:06:21.529Z,29.17
2022-08-24T17:09:26.865Z,28.91
2022-08-24T17:12:31.487Z,28.74
2022-08-24T17:15:36.903Z,28.65
2022-08-24T17:18:41.642Z,28.59
2022-08-24T17:21:45.702Z,28.49
2022-08-24T17:24:52.002Z,28.44
2022-08-24T17:27:56.324Z,28.37
2022-08-24T17:31:01.399Z,28.22
2022-08-24T17:34:06.511Z,28.14
2022-08-24T17:37:11.796Z,28.10
2022-08-24T17:40:19.752Z,28.03
2022-08-24T17:43:24.929Z,27.99
2022-08-24T17:46:29.581Z,27.94
2022-08-24T17:49:34.635Z,27.84
2022-08-24T17:52:38.901Z,27.68
2022-08-24T17:55:44.101Z,27.55
2022-08-24T17:59:01.789Z,27.38
2022-08-24T18:02:09.961Z,27.25
2022-08-24T18:05:14.964Z,27.13
2022-08-24T18:08:18.681Z,26.98
2022-08-24T18:11:25.985Z,26.85
2022-08-24T18:14:31.490Z,26.76
2022-08-24T18:17:40.976Z,26.64
2022-08-24T18:20:44.699Z,26.48
2022-08-24T18:23:49.555Z,26.43
2022-08-24T18:26:54.545Z,26.33
2022-08-24T18:30:03.309Z,26.23
2022-08-24T18:33:09.195Z,26.07
2022-08-24T18:36:13.431Z,25.95
2022-08-24T18:39:17.215Z,25.90
2022-08-24T18:42:28.543Z,25.86
2022-08-24T18:45:53.035Z,25.85
2022-08-24T18:48:57.055Z,25.69
2022-08-24T18:52:01.647Z,25.61
2022-08-24T18:55:08.832Z,25.58
2022-08-24T18:58:14.311Z,25.45
2022-08-24T19:01:18.616Z,25.36
2022-08-24T19:04:29.505Z,25.29
2022-08-24T19:07:40.922Z,25.17
2022-08-24T19:10:46.360Z,25.09
2022-08-24T19:13:51.575Z,25.02
2022-08-24T19:16:55.375Z,24.97
2022-08-24T19:19:59.630Z,24.87
2022-08-24T19:23:10.819Z,24.74
2022-08-24T19:26:14.562Z,24.70
2022-08-24T19:29:38.865Z,24.62
2022-08-24T19:32:45.008Z,24.51
2022-08-24T19:35:48.825Z,24.44
2022-08-24T19:38:52.955Z,24.35
2022-08-24T19:41:57.020Z,24.28
2022-08-24T19:45:19.885Z,24.23
2022-08-24T19:48:24.970Z,24.12
2022-08-24T19:51:29.004Z,24.05
2022-08-24T19:54:37.687Z,23.98
2022-08-24T19:57:55.224Z,23.91
2022-08-24T20:01:06.285Z,23.81
2022-08-24T20:04:09.976Z,23.74
2022-08-24T20:07:18.866Z,23.63
2022-08-24T20:10:25.640Z,23.58
2022-08-24T20:13:29.733Z,23.55
2022-08-24T20:16:42.056Z,23.45
2022-08-24T20:19:46.054Z,23.40
2022-08-24T20:22:50.022Z,23.34
2022-08-24T20:25:54.644Z,23.26
2022-08-24T20:28:59.776Z,23.18
2022-08-24T20:32:05.067Z,23.10
2022-08-24T20:35:10.392Z,23.05
2022-08-24T20:38:19.381Z,22.99
2022-08-24T20:41:23.217Z,22.92
2022-08-24T20:44:26.890Z,22.88
2022-08-24T20:47:32.011Z,22.82
2022-08-24T20:50:35.663Z,22.77
2022-08-24T20:53:39.370Z,22.70
2022-08-24T20:56:45.702Z,22.64
2022-08-24T20:59:49.344Z,22.60
2022-08-24T21:02:54.589Z,22.55
2022-08-24T21:05:59.175Z,22.50
2022-08-24T21:09:04.923Z,22.51
2022-08-24T21:12:09.730Z,22.47
2022-08-24T21:15:14.390Z,22.40
2022-08-24T21:18:20.496Z,22.35
2022-08-24T21:21:24.751Z,22.28
2022-08-24T21:24:28.629Z,22.23
2022-08-24T21:27:35.208Z,22.23
2022-08-24T21:30:38.827Z,22.18
2022-08-24T21:34:01.375Z,22.16
2022-08-24T21:37:07.348Z,22.06
2022-08-24T21:40:13.190Z,22.00
2022-08-24T21:43:19.919Z,21.90
2022-08-24T21:46:29.238Z,21.85
2022-08-24T21:49:35.215Z,21.79
2022-08-24T21:52:39.070Z,21.81
2022-08-24T21:55:43.913Z,21.79
2022-08-24T21:58:47.638Z,21.71
2022-08-24T22:01:51.409Z,21.64
2022-08-24T22:04:56.973Z,21.56
2022-08-24T22:08:00.638Z,21.49
2022-08-24T22:11:04.715Z,21.38
2022-08-24T22:14:08.375Z,21.29
2022-08-24T22:17:12.354Z,21.24
2022-08-24T22:20:23.195Z,21.24
2022-08-24T22:23:27.668Z,21.21
2022-08-24T22:26:31.491Z,21.18
2022-08-24T22:29:35.483Z,21.15
2022-08-24T22:32:39.696Z,21.17
2022-08-24T22:35:46.408Z,21.12
2022-08-24T22:38:50.451Z,21.13
2022-08-24T22:41:54.111Z,21.08
2022-08-24T22:44:58.662Z,21.03
2022-08-24T22:48:02.322Z,21.04
2022-08-24T22:51:12.453Z,20.98
2022-08-24T22:54:17.382Z,21.00
2022-08-24T22:57:20.975Z,20.95
2022-08-24T23:00:24.879Z,20.90
2022-08-24T23:03:28.908Z,20.87
2022-08-24T23:06:34.342Z,20.83
2022-08-24T23:09:44.018Z,20.79
2022-08-24T23:12:49.149Z,20.84
2022-08-24T23:15:53.899Z,20.79
2022-08-24T23:19:15.222Z,20.73
2022-08-24T23:22:21.748Z,20.66
2022-08-24T23:25:26.260Z,20.60
2022-08-24T23:28:31.505Z,20.54
2022-08-24T23:31:35.605Z,20.49
2022-08-24T23:34:39.772Z,20.44
2022-08-24T23:37:44.888Z,20.39
2022-08-24T23:40:48.786Z,20.32
2022-08-24T23:43:52.785Z,20.29
2022-08-24T23:46:57.650Z,20.24
2022-08-24T23:50:01.277Z,20.12
2022-08-24T23:53:06.216Z,20.03
2022-08-24T23:56:14.278Z,20.03
2022-08-24T23:59:22.985Z,19.96
